Terminal Aerodrome Forecast
Issued by NWS

Current Version | Previous Version | Text Only | Print | Product List | Glossary On
Versions: 1 2 3 4 5 6 7 8 9 10 11 12 13 14 15 16 17 18 19 20
000 FTUS41 KBOX 270522 TAFHYA TAF KHYA 270522Z 2706/2806 28008KT P6SM SKC FM271100 24008KT P6SM SKC FM271500 22012G26KT P6SM FEW250 FM272300 21010KT P6SM FEW250=

USA.gov is the U.S. government's official web portal to all federal, state and local government web resources and services.